createdAt,value
2023-01-29T00:19:15.606Z,1026.53
2023-01-29T00:49:15.614Z,1026.25
2023-01-29T01:19:15.634Z,1026.21
2023-01-29T01:49:15.630Z,1026.27
2023-01-29T02:19:15.621Z,1026.14
2023-01-29T02:49:15.606Z,1026.04
2023-01-29T03:19:15.608Z,1026.16
2023-01-29T03:49:15.620Z,1026.19
2023-01-29T04:19:15.622Z,1026.4
2023-01-29T04:49:15.628Z,1026.39
2023-01-29T05:19:15.654Z,1026.06
2023-01-29T05:49:15.656Z,1025.48
2023-01-29T06:19:15.651Z,1025.66
2023-01-29T06:49:15.659Z,1025.85
2023-01-29T07:19:15.667Z,1026.05
2023-01-29T07:49:15.671Z,1026.12
2023-01-29T08:19:15.667Z,1026.3
2023-01-29T08:49:15.664Z,1026.51
2023-01-29T09:19:15.667Z,1026.5
2023-01-29T09:49:15.666Z,1026.11
2023-01-29T10:19:15.688Z,1026.33
2023-01-29T10:49:15.679Z,1026.24
2023-01-29T11:19:15.708Z,1025.6
2023-01-29T11:49:20.886Z,1025.18
2023-01-29T12:19:15.725Z,1024.52
2023-01-29T12:49:15.737Z,1024.12
2023-01-29T13:19:15.719Z,1023.94
2023-01-29T13:49:15.732Z,1023.78
2023-01-29T14:19:15.741Z,1023.73
2023-01-29T14:49:15.730Z,1023.45
2023-01-29T15:19:15.746Z,1023.32
2023-01-29T15:49:15.757Z,1023.05
2023-01-29T16:19:15.752Z,1022.81
2023-01-29T16:49:15.746Z,1022.76
2023-01-29T17:19:16.449Z,1022.64
2023-01-29T17:49:15.746Z,1022.63
2023-01-29T18:19:15.763Z,1022.74
2023-01-29T18:49:15.766Z,1022.75
2023-01-29T19:19:16.831Z,1022.71
2023-01-29T19:49:15.793Z,1022.39
2023-01-29T20:19:15.808Z,1022.08
2023-01-29T20:49:15.808Z,1022.01
2023-01-29T21:19:15.789Z,1021.93
2023-01-29T21:49:15.802Z,1022.02
2023-01-29T22:19:15.805Z,1021.59
2023-01-29T22:49:15.801Z,1020.61
2023-01-29T23:19:15.797Z,1020.26
2023-01-29T23:49:15.814Z,1019.7
